< < Back
Terminal Aerodrome Forecast


Current Version              Previous Versions:   1  2  3  4  5  6  7  8  9  

Terminal Aerodrome Forecast

529
FTUS42 KGSP 311737
TAFAND
TAF
KAND 311737Z 3118/0118 07005KT P6SM SCT060
      TEMPO 3118/3122 BKN060
     FM010200 VRB03KT P6SM FEW080 SCT150
     FM011300 24003KT P6SM SCT100=

Latest METAR

229
SAUS70 KWBC 010100 RRX
MTRAND
METAR KAND 010056Z AUTO 14005KT 10SM CLR 27/21 A2992 RMK AO2 SLP120
T02720206


USA.gov is the U.S. government's official web portal to all federal, state and local government web resources and services.